Time;durP1;ratioP1;P1;durP2;ratioP2;P2;SDS_P1;SDS_P2;PMS_P1;PMS_P2;Temp;Humidity;BMP_temperature;BMP_pressure;BME280_temperature;BME280_humidity;BME280_pressure;Samples;Min_cycle;Max_cycle;Signal;HPM_P1;HPM_P2
2023/04/30 20:11:21;;;;;;;;;19.00;18.25;;;;;;;;6232741;22;49649;-71
2023/04/30 20:13:46;;;;;;;;;17.50;15.75;;;;;;;;6233460;22;49956;-70
2023/04/30 20:16:16;;;;;;;;;20.00;20.00;;;;;;;;6233346;22;50541;-70
2023/04/30 20:18:41;;;;;;;;;19.25;17.25;;;;;;;;6235618;22;49705;-74
2023/04/30 20:21:07;;;;;;;;;20.50;20.50;;;;;;;;6234957;22;49602;-71
2023/04/30 20:23:33;;;;;;;;;21.25;21.00;;;;;;;;6235504;22;49637;-70
2023/04/30 20:25:58;;;;;;;;;16.25;15.50;;;;;;;;6233966;22;51396;-72
2023/04/30 20:28:23;;;;;;;;;13.50;13.25;;;;;;;;6234628;22;49685;-71
2023/04/30 20:30:48;;;;;;;;;20.50;17.50;;;;;;;;6234491;22;49766;-71
2023/04/30 20:33:14;;;;;;;;;18.00;17.25;;;;;;;;6234541;22;49982;-71
2023/04/30 20:35:40;;;;;;;;;18.75;18.25;;;;;;;;6234958;22;50077;-71
2023/04/30 20:38:05;;;;;;;;;18.00;16.75;;;;;;;;6234002;22;49771;-70
2023/04/30 20:40:31;;;;;;;;;19.50;17.75;;;;;;;;6233957;22;50039;-71
2023/04/30 20:42:56;;;;;;;;;24.25;20.75;;;;;;;;6234264;22;49867;-71
2023/04/30 20:45:22;;;;;;;;;21.75;21.25;;;;;;;;6232736;22;51177;-71
2023/04/30 20:47:47;;;;;;;;;23.50;21.75;;;;;;;;6234323;22;49774;-71
2023/04/30 20:50:14;;;;;;;;;18.00;18.00;;;;;;;;6234507;22;49679;-70
2023/04/30 20:52:39;;;;;;;;;17.75;16.25;;;;;;;;6234886;22;49887;-71
2023/04/30 20:55:04;;;;;;;;;17.75;17.75;;;;;;;;6234374;22;50462;-70
2023/04/30 20:57:29;;;;;;;;;21.25;19.00;;;;;;;;6234172;22;49622;-71
2023/04/30 20:59:54;;;;;;;;;24.25;21.50;;;;;;;;6233941;22;49777;-69
2023/04/30 21:02:20;;;;;;;;;21.25;20.00;;;;;;;;6234928;22;49606;-71
2023/04/30 21:04:45;;;;;;;;;22.50;21.25;;;;;;;;6233982;22;50420;-71
2023/04/30 21:07:10;;;;;;;;;24.25;22.25;;;;;;;;6234890;22;49627;-70
2023/04/30 21:09:37;;;;;;;;;13.25;13.25;;;;;;;;6233185;22;50329;-70
2023/04/30 21:12:03;;;;;;;;;21.75;20.75;;;;;;;;6234849;22;49591;-69
2023/04/30 21:14:29;;;;;;;;;22.00;20.75;;;;;;;;6232840;22;50163;-70
2023/04/30 21:16:54;;;;;;;;;18.75;18.75;;;;;;;;6234018;22;49970;-69
2023/04/30 21:19:19;;;;;;;;;21.50;19.25;;;;;;;;6234263;22;49880;-71
2023/04/30 21:21:45;;;;;;;;;22.00;20.75;;;;;;;;6234557;22;49889;-69
2023/04/30 21:24:10;;;;;;;;;25.00;23.75;;;;;;;;6233818;22;50552;-71
2023/04/30 21:26:35;;;;;;;;;19.75;19.75;;;;;;;;6233533;22;49929;-70
2023/04/30 21:29:01;;;;;;;;;22.50;22.25;;;;;;;;6234079;22;49768;-71
2023/04/30 21:31:27;;;;;;;;;20.50;20.50;;;;;;;;6234586;22;49549;-69
2023/04/30 21:33:52;;;;;;;;;20.50;19.75;;;;;;;;6207005;22;52124;-70
2023/04/30 21:36:19;;;;;;;;;19.50;18.25;;;;;;;;6234167;22;49632;-70
2023/04/30 21:38:44;;;;;;;;;20.25;18.50;;;;;;;;6207008;22;49611;-70
2023/04/30 21:41:13;;;;;;;;;22.50;20.00;;;;;;;;6234582;22;50005;-70
2023/04/30 21:43:40;;;;;;;;;24.75;24.00;;;;;;;;6206767;22;52530;-71
2023/04/30 21:46:05;;;;;;;;;22.50;20.50;;;;;;;;6234405;22;49570;-70
2023/04/30 21:48:30;;;;;;;;;23.50;22.00;;;;;;;;6233966;22;49884;-73
2023/04/30 21:50:56;;;;;;;;;21.00;20.00;;;;;;;;6233478;22;49760;-69
2023/04/30 21:53:21;;;;;;;;;26.25;25.25;;;;;;;;6233929;22;50483;-70
2023/04/30 21:55:48;;;;;;;;;20.75;20.50;;;;;;;;6234110;22;49555;-71
2023/04/30 21:58:13;;;;;;;;;20.25;20.00;;;;;;;;6234003;22;49559;-71
2023/04/30 22:00:38;;;;;;;;;23.25;22.25;;;;;;;;6207245;22;49870;-70
2023/04/30 22:03:03;;;;;;;;;25.00;23.75;;;;;;;;6234277;22;50433;-70
2023/04/30 22:05:29;;;;;;;;;22.75;20.25;;;;;;;;6233961;22;49927;-70
2023/04/30 22:07:54;;;;;;;;;23.00;23.00;;;;;;;;6232859;22;49735;-70
2023/04/30 22:10:19;;;;;;;;;24.50;22.25;;;;;;;;6233312;22;49874;-70
2023/04/30 22:12:44;;;;;;;;;20.00;20.00;;;;;;;;6233641;22;49844;-71
2023/04/30 22:15:11;;;;;;;;;25.75;23.75;;;;;;;;6233989;22;49858;-72
2023/04/30 22:17:36;;;;;;;;;26.50;25.25;;;;;;;;6234228;22;49692;-70
2023/04/30 22:20:01;;;;;;;;;26.00;23.75;;;;;;;;6234419;22;50016;-70
2023/04/30 22:22:26;;;;;;;;;28.75;28.00;;;;;;;;6233910;22;49737;-71
2023/04/30 22:24:51;;;;;;;;;32.00;27.75;;;;;;;;6234175;22;49840;-70
2023/04/30 22:27:17;;;;;;;;;26.25;23.75;;;;;;;;6234482;22;49993;-71
2023/04/30 22:29:42;;;;;;;;;33.50;31.00;;;;;;;;6234137;22;49660;-71
2023/04/30 22:32:08;;;;;;;;;32.25;30.50;;;;;;;;6233705;22;50395;-71
2023/04/30 22:34:36;;;;;;;;;29.00;29.00;;;;;;;;6233731;22;49643;-71
2023/04/30 22:37:02;;;;;;;;;29.75;29.50;;;;;;;;6234051;22;49625;-70
2023/04/30 22:39:27;;;;;;;;;37.50;34.00;;;;;;;;6233458;22;49608;-71
2023/04/30 22:41:53;;;;;;;;;35.50;32.25;;;;;;;;6206835;22;50410;-71
2023/04/30 22:44:19;;;;;;;;;38.00;34.50;;;;;;;;6206613;22;49646;-71
2023/04/30 22:46:44;;;;;;;;;38.00;32.50;;;;;;;;6234483;22;50039;-71
2023/04/30 22:49:12;;;;;;;;;33.75;30.00;;;;;;;;6234016;22;49886;-71
2023/04/30 22:51:37;;;;;;;;;29.75;29.75;;;;;;;;6234056;22;49702;-70
2023/04/30 22:54:03;;;;;;;;;34.50;30.25;;;;;;;;6234185;22;49671;-70
2023/04/30 22:56:28;;;;;;;;;29.50;27.75;;;;;;;;6233862;22;50026;-70
2023/04/30 22:58:53;;;;;;;;;30.25;30.25;;;;;;;;6234192;22;49609;-71
2023/04/30 23:01:18;;;;;;;;;30.00;28.75;;;;;;;;6233395;22;51334;-70
2023/04/30 23:03:44;;;;;;;;;36.25;31.75;;;;;;;;6233845;22;50034;-71
2023/04/30 23:06:10;;;;;;;;;29.50;28.50;;;;;;;;6234209;22;49681;-70
2023/04/30 23:08:35;;;;;;;;;31.25;29.75;;;;;;;;6234058;22;50329;-71
2023/04/30 23:11:02;;;;;;;;;35.75;32.00;;;;;;;;6233620;22;50300;-71
2023/04/30 23:13:27;;;;;;;;;35.50;32.50;;;;;;;;6233689;22;49639;-71
2023/04/30 23:15:55;;;;;;;;;36.75;32.50;;;;;;;;6234128;22;49781;-71
2023/04/30 23:18:22;;;;;;;;;33.50;31.00;;;;;;;;6233822;22;49880;-70
2023/04/30 23:20:47;;;;;;;;;34.50;32.00;;;;;;;;6233568;22;49697;-70
2023/04/30 23:23:12;;;;;;;;;35.50;31.75;;;;;;;;6234091;22;49627;-71
2023/04/30 23:25:38;;;;;;;;;36.75;32.75;;;;;;;;6233895;22;49952;-70
2023/04/30 23:28:03;;;;;;;;;34.75;32.25;;;;;;;;6233711;22;49878;-71
2023/04/30 23:30:29;;;;;;;;;37.00;34.50;;;;;;;;6233672;22;50804;-71
2023/04/30 23:32:54;;;;;;;;;35.75;32.00;;;;;;;;6233675;22;49828;-71
2023/04/30 23:35:19;;;;;;;;;34.50;33.50;;;;;;;;6233849;22;49680;-71
2023/04/30 23:37:45;;;;;;;;;42.75;35.00;;;;;;;;6233996;22;50448;-71
2023/04/30 23:40:10;;;;;;;;;34.00;30.00;;;;;;;;6233176;22;51218;-70
2023/04/30 23:42:35;;;;;;;;;28.75;27.25;;;;;;;;6233292;22;49954;-71
2023/04/30 23:45:01;;;;;;;;;37.25;34.50;;;;;;;;6233992;22;49685;-71
2023/04/30 23:47:27;;;;;;;;;37.00;33.50;;;;;;;;6206223;22;49604;-71
2023/04/30 23:49:52;;;;;;;;;33.25;30.50;;;;;;;;6233162;22;50516;-70
2023/04/30 23:52:17;;;;;;;;;41.25;34.50;;;;;;;;6234857;22;49931;-71
2023/04/30 23:54:43;;;;;;;;;33.25;31.50;;;;;;;;6234874;22;49606;-71
2023/04/30 23:57:09;;;;;;;;;31.50;31.50;;;;;;;;6235299;22;49819;-71
2023/04/30 23:59:34;;;;;;;;;39.00;33.25;;;;;;;;6207389;22;51521;-70
